Aérodrome :
LOGIN :

S'inscrire | Disclaimer

   EN    FR    IT 

 










Légende :    VFR   VFR Marginal   IFR   IFR Intensif   IFR Très Intensif
Visi : 
Plafond : 
>= 8 km
>= 3000ft
5 à 8 km
1000 à 3000 ft
1500m à 5 km
500 à 1000 ft
800 à 1500m
200 à 500 ft
< 800m
< 200 ft
Symboles :   Orages  Brouillard  Fortes neiges  Fortes précipitations  Vent > 20 kt
SIGMETs :   Divers  Orages  Givrage  Turbulence  Onde Orograph.  Cendres Volcan.






- Altitude de l'aérodrome : -15 ft
- Code IATA : RTM


EHRD - Rotterdam Zestienhoven

DERNIER METAR :
  • 030155Z AUTO 22001KT 2100 BR NCD 03/02 Q1028 TEMPO 2500 BCFG

METARs EXPIRÉS :
  • 030125Z AUTO 22001KT 2200 BR NCD 03/03 Q1028 TEMPO 1200 BCFG
  • 030055Z AUTO 23001KT 3500 BR NCD 03/03 Q1028 TEMPO 2000 BCFG
  • 030025Z AUTO 22002KT 2200 BR NCD 03/03 Q1028 TEMPO 1200 BCFG
  • 022355Z AUTO 28001KT 9000 R24/1400D NCD 03/03 Q1028 TEMPO 2000 BCFG
  • 022325Z AUTO 00000KT 9000 NCD 04/03 Q1028 TEMPO 2000 BCFG

TAF TAF EHRD
Valide du 03 à 00h jusqu'au 04 à 06h UTC


022321Z 0300/0406 VRB03KT 6000 NSC
BECMG 0300/0303 2500 BR MIFG
PROB40 0304/0310 0500 FG BKN001
BECMG 0309/0312 30006KT 9999 NSW FEW015
BECMG 0316/0319 4000 BR BKN005
PROB40 0319/0404 2000 BKN002
PROB40
TEMPO 0322/0406 6000 RA SHRA SCT040CB



MET'MAP, la Météo Aéronautique d'un coup d'oeil ! - Copyright ORBIFLY Décembre 2007 - Disclaimer

ORBIFLY MET'MAP TEAM :

Programmation & Développement : Alexandra Zaïnal
Sur une idée originale de : Baudouin d'Aumeries
Assistance à la programmation : Marc-Olivier Méhu
Soutien technique & logistique : Manuel Goepfert

Contact : metmap@orbifly.com




SOURCES & CREDITS :

   NOAA